ESGG/GOT METAR and TAF weather

Enter ICAO airport designator
Station Type Date Time Source
ESGG METAR 2019/08/19 22:20 UTC NOAA

ESGG 192220Z 21009KT 9999 FEW017 SCT038 14/13 Q1012


Station Type Date Time Source
ESGG Decoded METAR 2019/08/19 22:20 UTC NOAA

Goteborg / Landvetter, Sweden (ESGG) 57-40N 012-18E
Aug 19, 2019 - 06:20 PM EDT / 2019.08.19 2220 UTC
Wind: from the SSW (210 degrees) at 10 MPH (9 KT):0
Visibility: greater than 7 mile(s):0
Sky conditions: partly cloudy
Temperature: 57 F (14 C)
Dew Point: 55 F (13 C)
Relative Humidity: 93%
Pressure (altimeter): 29.88 in. Hg (1012 hPa)
ob: ESGG 192220Z 21009KT 9999 FEW017 SCT038 14/13 Q1012
cycle: 22

Station Type Date Time Source
ESGG TAF 2019/08/19 18:33 UTC NOAA

TAF TAF ESGG 191730Z 1918/2018 21009KT CAVOK
TEMPO 1918/1922 24015G25KT SHRA TS BKN025CB PROB40 2000/2007 BKN007 SCT030CB
TEMPO 2009/2017 SHRA BKN030CB

Example: see airport list